sensor_id;sensor_type;location;lat;lon;timestamp;pressure;altitude;pressure_sealevel;temperature;humidity
49583;BME280;36329;48.816;44.624;2022-07-23T00:01:56;100158;;;19.3;70.6
49583;BME280;36329;48.816;44.624;2022-07-23T00:04:58;100158;;;19.3;70.7
49583;BME280;36329;48.816;44.624;2022-07-23T00:08:05;100157;;;19.4;70.7
49583;BME280;36329;48.816;44.624;2022-07-23T00:11:07;100167;;;19.4;70
49583;BME280;36329;48.816;44.624;2022-07-23T00:14:09;100162;;;19.5;69.9
49583;BME280;36329;48.816;44.624;2022-07-23T00:17:16;100166;;;19.3;70.6
49583;BME280;36329;48.816;44.624;2022-07-23T00:20:18;100165;;;19.2;71.5
49583;BME280;36329;48.816;44.624;2022-07-23T00:23:20;100162;;;19;72.2
49583;BME280;36329;48.816;44.624;2022-07-23T00:26:22;100165;;;19;72.3
49583;BME280;36329;48.816;44.624;2022-07-23T00:29:23;100166;;;18.9;72.9
49583;BME280;36329;48.816;44.624;2022-07-23T00:32:24;100168;;;18.8;73.5
49583;BME280;36329;48.816;44.624;2022-07-23T00:35:33;100166;;;18.8;74.5
49583;BME280;36329;48.816;44.624;2022-07-23T00:38:35;100164;;;18.6;75.7
49583;BME280;36329;48.816;44.624;2022-07-23T00:41:37;100164;;;18.6;76.2
49583;BME280;36329;48.816;44.624;2022-07-23T00:44:38;100167;;;18.7;76.4
49583;BME280;36329;48.816;44.624;2022-07-23T00:47:40;100169;;;18.7;76.4
49583;BME280;36329;48.816;44.624;2022-07-23T00:50:42;100170;;;18.8;75.9
49583;BME280;36329;48.816;44.624;2022-07-23T00:53:49;100171;;;18.7;76.2
49583;BME280;36329;48.816;44.624;2022-07-23T00:56:51;100173;;;18.7;76.4
49583;BME280;36329;48.816;44.624;2022-07-23T00:59:53;100164;;;18.7;76.9
49583;BME280;36329;48.816;44.624;2022-07-23T01:02:54;100166;;;18.8;76.8
49583;BME280;36329;48.816;44.624;2022-07-23T01:05:56;100167;;;18.8;77.2
49583;BME280;36329;48.816;44.624;2022-07-23T01:09:04;100169;;;18.9;77.4
49583;BME280;36329;48.816;44.624;2022-07-23T01:12:07;100161;;;18.7;78.5
49583;BME280;36329;48.816;44.624;2022-07-23T01:15:09;100165;;;18.7;78.8
49583;BME280;36329;48.816;44.624;2022-07-23T01:18:27;100161;;;18.6;79.1
49583;BME280;36329;48.816;44.624;2022-07-23T01:21:29;100172;;;18.3;81
49583;BME280;36329;48.816;44.624;2022-07-23T01:24:32;100182;;;18.1;82.7
49583;BME280;36329;48.816;44.624;2022-07-23T01:27:33;100179;;;18.3;82.8
49583;BME280;36329;48.816;44.624;2022-07-23T01:30:35;100187;;;18.4;81.8
49583;BME280;36329;48.816;44.624;2022-07-23T01:33:36;100184;;;18.6;81.4
49583;BME280;36329;48.816;44.624;2022-07-23T01:36:38;100189;;;18.8;80.6
49583;BME280;36329;48.816;44.624;2022-07-23T01:39:40;100193;;;19;79.6
49583;BME280;36329;48.816;44.624;2022-07-23T01:42:41;100192;;;18.9;80.2
49583;BME280;36329;48.816;44.624;2022-07-23T01:45:43;100191;;;18.8;81.3
49583;BME280;36329;48.816;44.624;2022-07-23T01:48:44;100190;;;18.8;81.4
49583;BME280;36329;48.816;44.624;2022-07-23T01:51:46;100191;;;18.7;82.3
49583;BME280;36329;48.816;44.624;2022-07-23T01:54:48;100197;;;18.6;82.4
49583;BME280;36329;48.816;44.624;2022-07-23T01:57:49;100197;;;18.5;82.8
49583;BME280;36329;48.816;44.624;2022-07-23T02:00:51;100201;;;18.4;83.5
49583;BME280;36329;48.816;44.624;2022-07-23T02:03:53;100204;;;18.5;84.1
49583;BME280;36329;48.816;44.624;2022-07-23T02:06:55;100211;;;18.5;83.5
49583;BME280;36329;48.816;44.624;2022-07-23T02:09:56;100210;;;18.6;83.4
49583;BME280;36329;48.816;44.624;2022-07-23T02:12:58;100215;;;18.7;83
49583;BME280;36329;48.816;44.624;2022-07-23T02:15:59;100219;;;18.8;83
49583;BME280;36329;48.816;44.624;2022-07-23T02:19:06;100213;;;18.8;82.4
49583;BME280;36329;48.816;44.624;2022-07-23T02:22:08;100219;;;18.9;81.7
49583;BME280;36329;48.816;44.624;2022-07-23T02:25:09;100226;;;18.7;82.3
49583;BME280;36329;48.816;44.624;2022-07-23T02:28:16;100227;;;18.8;82.4
49583;BME280;36329;48.816;44.624;2022-07-23T02:31:23;100229;;;18.9;82
49583;BME280;36329;48.816;44.624;2022-07-23T02:34:24;100232;;;18.9;82.1
49583;BME280;36329;48.816;44.624;2022-07-23T02:37:26;100232;;;18.9;82.5
49583;BME280;36329;48.816;44.624;2022-07-23T02:40:28;100229;;;19.1;81.3
49583;BME280;36329;48.816;44.624;2022-07-23T02:43:35;100229;;;19.2;80.2
49583;BME280;36329;48.816;44.624;2022-07-23T02:46:37;100223;;;19.3;79.9
49583;BME280;36329;48.816;44.624;2022-07-23T02:49:38;100225;;;19.4;79.7
49583;BME280;36329;48.816;44.624;2022-07-23T02:52:40;100217;;;19.4;79.9
49583;BME280;36329;48.816;44.624;2022-07-23T02:55:46;100218;;;19.5;79.8
49583;BME280;36329;48.816;44.624;2022-07-23T02:58:54;100216;;;19.4;81
49583;BME280;36329;48.816;44.624;2022-07-23T03:01:55;100216;;;19.5;81
49583;BME280;36329;48.816;44.624;2022-07-23T03:04:57;100220;;;19.6;80.6
49583;BME280;36329;48.816;44.624;2022-07-23T03:07:59;100222;;;19.7;80.6
49583;BME280;36329;48.816;44.624;2022-07-23T03:11:00;100224;;;19.8;77.2
49583;BME280;36329;48.816;44.624;2022-07-23T03:14:02;100228;;;19.8;76.4
49583;BME280;36329;48.816;44.624;2022-07-23T03:17:08;100226;;;19.6;77.2
49583;BME280;36329;48.816;44.624;2022-07-23T03:20:11;100237;;;19.5;78.7
49583;BME280;36329;48.816;44.624;2022-07-23T03:23:12;100238;;;19.2;79.9
49583;BME280;36329;48.816;44.624;2022-07-23T03:26:14;100233;;;19.2;81
49583;BME280;36329;48.816;44.624;2022-07-23T03:29:15;100228;;;19.1;82.3
49583;BME280;36329;48.816;44.624;2022-07-23T03:32:17;100232;;;19.2;81.7
49583;BME280;36329;48.816;44.624;2022-07-23T03:35:18;100229;;;19.3;81.9
49583;BME280;36329;48.816;44.624;2022-07-23T03:38:20;100230;;;19.5;81.9
49583;BME280;36329;48.816;44.624;2022-07-23T03:41:22;100228;;;19.6;80.2
49583;BME280;36329;48.816;44.624;2022-07-23T03:44:28;100228;;;19.8;79.9
49583;BME280;36329;48.816;44.624;2022-07-23T03:47:30;100233;;;20;79.2
49583;BME280;36329;48.816;44.624;2022-07-23T03:50:32;100230;;;20.3;77
49583;BME280;36329;48.816;44.624;2022-07-23T03:53:40;100229;;;20.5;76.4
49583;BME280;36329;48.816;44.624;2022-07-23T03:56:56;100226;;;20.6;74.6
49583;BME280;36329;48.816;44.624;2022-07-23T03:59:58;100236;;;20.6;74.4
49583;BME280;36329;48.816;44.624;2022-07-23T04:03:00;100230;;;20.7;74.5
49583;BME280;36329;48.816;44.624;2022-07-23T04:06:07;100228;;;20.8;74.8
49583;BME280;36329;48.816;44.624;2022-07-23T04:09:09;100222;;;21;72.2
49583;BME280;36329;48.816;44.624;2022-07-23T04:12:10;100226;;;21.2;71.4
49583;BME280;36329;48.816;44.624;2022-07-23T04:15:12;100231;;;21.2;71
49583;BME280;36329;48.816;44.624;2022-07-23T04:18:14;100226;;;21.3;70.7
49583;BME280;36329;48.816;44.624;2022-07-23T04:21:15;100233;;;21.5;70.5
49583;BME280;36329;48.816;44.624;2022-07-23T04:24:17;100230;;;21.6;69.9
49583;BME280;36329;48.816;44.624;2022-07-23T04:27:19;100232;;;21.6;69
49583;BME280;36329;48.816;44.624;2022-07-23T04:30:21;100228;;;22;68.3
49583;BME280;36329;48.816;44.624;2022-07-23T04:33:38;100229;;;21.7;68.3
49583;BME280;36329;48.816;44.624;2022-07-23T04:36:39;100233;;;22.1;67.3
49583;BME280;36329;48.816;44.624;2022-07-23T04:39:41;100236;;;22.4;65.8
49583;BME280;36329;48.816;44.624;2022-07-23T04:42:48;100232;;;22.5;64.8
49583;BME280;36329;48.816;44.624;2022-07-23T04:45:50;100224;;;22.6;65.3
49583;BME280;36329;48.816;44.624;2022-07-23T04:48:51;100225;;;22.5;65.3
49583;BME280;36329;48.816;44.624;2022-07-23T04:51:53;100221;;;22.8;64.2
49583;BME280;36329;48.816;44.624;2022-07-23T04:54:55;100218;;;22.9;61.8
49583;BME280;36329;48.816;44.624;2022-07-23T04:58:02;100225;;;23;59.4
49583;BME280;36329;48.816;44.624;2022-07-23T05:01:03;100233;;;22.8;60.1
49583;BME280;36329;48.816;44.624;2022-07-23T05:04:05;100234;;;22.9;59.2
49583;BME280;36329;48.816;44.624;2022-07-23T05:07:12;100236;;;23.1;59.4
49583;BME280;36329;48.816;44.624;2022-07-23T05:10:19;100242;;;22.5;60.8
49583;BME280;36329;48.816;44.624;2022-07-23T05:13:21;100247;;;22.9;59
49583;BME280;36329;48.816;44.624;2022-07-23T05:16:23;100243;;;23;58.2
49583;BME280;36329;48.816;44.624;2022-07-23T05:19:24;100238;;;23;57.7
49583;BME280;36329;48.816;44.624;2022-07-23T05:22:26;100228;;;23;57.3
49583;BME280;36329;48.816;44.624;2022-07-23T05:25:28;100231;;;23.1;58.4
49583;BME280;36329;48.816;44.624;2022-07-23T05:28:30;100225;;;23.4;57.4
49583;BME280;36329;48.816;44.624;2022-07-23T05:31:31;100219;;;23.3;56.8
49583;BME280;36329;48.816;44.624;2022-07-23T05:34:33;100215;;;23.5;56.7
49583;BME280;36329;48.816;44.624;2022-07-23T05:37:34;100219;;;23.8;56.4
49583;BME280;36329;48.816;44.624;2022-07-23T05:40:36;100212;;;23.7;56.6
49583;BME280;36329;48.816;44.624;2022-07-23T05:43:37;100217;;;23.7;56.9
49583;BME280;36329;48.816;44.624;2022-07-23T05:46:39;100222;;;23.9;57
49583;BME280;36329;48.816;44.624;2022-07-23T05:49:40;100224;;;23.9;57.7
49583;BME280;36329;48.816;44.624;2022-07-23T05:52:42;100216;;;23.9;56.8
49583;BME280;36329;48.816;44.624;2022-07-23T05:55:44;100224;;;23.9;56.1
49583;BME280;36329;48.816;44.624;2022-07-23T05:58:51;100221;;;24.2;55.2
49583;BME280;36329;48.816;44.624;2022-07-23T06:01:53;100215;;;23.6;56.5
49583;BME280;36329;48.816;44.624;2022-07-23T06:05:00;100215;;;24.2;56.2
49583;BME280;36329;48.816;44.624;2022-07-23T06:08:01;100212;;;25.2;53.6
49583;BME280;36329;48.816;44.624;2022-07-23T06:11:03;100209;;;25.3;52.7
49583;BME280;36329;48.816;44.624;2022-07-23T06:14:04;100212;;;25.4;52.8
49583;BME280;36329;48.816;44.624;2022-07-23T06:17:07;100207;;;25.4;52.7
49583;BME280;36329;48.816;44.624;2022-07-23T06:20:10;100210;;;25.5;52.7
49583;BME280;36329;48.816;44.624;2022-07-23T06:23:11;100213;;;25.5;53.7
49583;BME280;36329;48.816;44.624;2022-07-23T06:26:13;100209;;;25.2;52.9
49583;BME280;36329;48.816;44.624;2022-07-23T06:29:14;100215;;;24.7;54.5
49583;BME280;36329;48.816;44.624;2022-07-23T06:32:16;100211;;;24.9;55.1
49583;BME280;36329;48.816;44.624;2022-07-23T06:35:18;100211;;;24.2;56.2
49583;BME280;36329;48.816;44.624;2022-07-23T06:38:19;100216;;;24;57.5
49583;BME280;36329;48.816;44.624;2022-07-23T06:41:21;100221;;;23.5;58.7
49583;BME280;36329;48.816;44.624;2022-07-23T06:44:22;100221;;;23.6;58.6
49583;BME280;36329;48.816;44.624;2022-07-23T06:47:29;100216;;;23.6;58.8
49583;BME280;36329;48.816;44.624;2022-07-23T06:50:32;100221;;;23.2;59.1
49583;BME280;36329;48.816;44.624;2022-07-23T06:53:33;100224;;;23.6;59
49583;BME280;36329;48.816;44.624;2022-07-23T06:56:40;100223;;;23.8;57.9
49583;BME280;36329;48.816;44.624;2022-07-23T06:59:42;100223;;;23.6;58.8
49583;BME280;36329;48.816;44.624;2022-07-23T07:02:44;100227;;;23.7;58.5
49583;BME280;36329;48.816;44.624;2022-07-23T07:05:46;100230;;;23.5;59.7
49583;BME280;36329;48.816;44.624;2022-07-23T07:08:48;100230;;;23.7;59.9
49583;BME280;36329;48.816;44.624;2022-07-23T07:11:50;100228;;;23.5;61.3
49583;BME280;36329;48.816;44.624;2022-07-23T07:14:51;100226;;;23.6;61.1
49583;BME280;36329;48.816;44.624;2022-07-23T07:17:53;100224;;;23.6;61.1
49583;BME280;36329;48.816;44.624;2022-07-23T07:20:54;100225;;;23.6;60.7
49583;BME280;36329;48.816;44.624;2022-07-23T07:23:56;100230;;;23.8;60.8
49583;BME280;36329;48.816;44.624;2022-07-23T07:26:57;100230;;;24.3;58.8
49583;BME280;36329;48.816;44.624;2022-07-23T07:30:06;100229;;;24.4;58.4
49583;BME280;36329;48.816;44.624;2022-07-23T07:33:08;100233;;;24.8;57
49583;BME280;36329;48.816;44.624;2022-07-23T07:36:09;100234;;;24.9;56.4
49583;BME280;36329;48.816;44.624;2022-07-23T07:39:11;100232;;;24.7;56.1
49583;BME280;36329;48.816;44.624;2022-07-23T07:42:12;100231;;;24.6;56.6
49583;BME280;36329;48.816;44.624;2022-07-23T07:45:14;100225;;;25.1;55.8
49583;BME280;36329;48.816;44.624;2022-07-23T07:48:21;100226;;;25;55
49583;BME280;36329;48.816;44.624;2022-07-23T07:51:23;100231;;;24.8;56.2
49583;BME280;36329;48.816;44.624;2022-07-23T07:54:24;100228;;;24.7;56.6
49583;BME280;36329;48.816;44.624;2022-07-23T07:57:26;100228;;;24.4;55.6
49583;BME280;36329;48.816;44.624;2022-07-23T08:00:34;100227;;;24.4;56.1
49583;BME280;36329;48.816;44.624;2022-07-23T08:03:35;100222;;;24.6;55.9
49583;BME280;36329;48.816;44.624;2022-07-23T08:06:37;100207;;;25.5;54.5
49583;BME280;36329;48.816;44.624;2022-07-23T08:09:44;100210;;;26.4;51.9
49583;BME280;36329;48.816;44.624;2022-07-23T08:12:48;100200;;;26.7;50.2
49583;BME280;36329;48.816;44.624;2022-07-23T08:15:49;100199;;;27;48.8
49583;BME280;36329;48.816;44.624;2022-07-23T08:18:51;100199;;;26.4;49.4
49583;BME280;36329;48.816;44.624;2022-07-23T08:21:52;100193;;;26.4;49.3
49583;BME280;36329;48.816;44.624;2022-07-23T08:24:54;100194;;;26.8;48.9
49583;BME280;36329;48.816;44.624;2022-07-23T08:27:57;100190;;;26.8;48.5
49583;BME280;36329;48.816;44.624;2022-07-23T08:30:59;100182;;;27.5;48.6
49583;BME280;36329;48.816;44.624;2022-07-23T08:34:01;100183;;;27.5;46.3
49583;BME280;36329;48.816;44.624;2022-07-23T08:37:02;100175;;;27.2;47.9
49583;BME280;36329;48.816;44.624;2022-07-23T08:40:04;100169;;;27.2;47.1
49583;BME280;36329;48.816;44.624;2022-07-23T08:43:13;100176;;;26.6;46.7
49583;BME280;36329;48.816;44.624;2022-07-23T08:46:16;100170;;;26.8;47.6
49583;BME280;36329;48.816;44.624;2022-07-23T08:49:22;100164;;;27.3;43.8
49583;BME280;36329;48.816;44.624;2022-07-23T08:52:24;100164;;;27.8;43.5
49583;BME280;36329;48.816;44.624;2022-07-23T08:55:26;100163;;;27.8;42.6
49583;BME280;36329;48.816;44.624;2022-07-23T08:58:28;100158;;;27.7;42.4
49583;BME280;36329;48.816;44.624;2022-07-23T09:01:30;100157;;;28.3;41.8
49583;BME280;36329;48.816;44.624;2022-07-23T09:04:32;100161;;;28.7;40.5
49583;BME280;36329;48.816;44.624;2022-07-23T09:11:09;100149;;;28.2;39.5
49583;BME280;36329;48.816;44.624;2022-07-23T09:14:11;100145;;;28.4;40
49583;BME280;36329;48.816;44.624;2022-07-23T09:17:14;100139;;;29.7;37
49583;BME280;36329;48.816;44.624;2022-07-23T09:20:16;100145;;;29.4;37.9
49583;BME280;36329;48.816;44.624;2022-07-23T09:23:18;100146;;;29.5;37.6
49583;BME280;36329;48.816;44.624;2022-07-23T09:26:22;100151;;;29.5;38
49583;BME280;36329;48.816;44.624;2022-07-23T09:29:25;100148;;;28.9;37.9
49583;BME280;36329;48.816;44.624;2022-07-23T09:32:26;100147;;;28.9;38.5
49583;BME280;36329;48.816;44.624;2022-07-23T09:35:49;100148;;;29.5;38.1
49583;BME280;36329;48.816;44.624;2022-07-23T09:38:57;100146;;;28.5;38.8
49583;BME280;36329;48.816;44.624;2022-07-23T09:42:13;100136;;;29;38.3
49583;BME280;36329;48.816;44.624;2022-07-23T09:45:15;100134;;;29.5;37.2
49583;BME280;36329;48.816;44.624;2022-07-23T09:48:17;100135;;;29.6;36.2
49583;BME280;36329;48.816;44.624;2022-07-23T09:51:24;100126;;;29.6;36.7
49583;BME280;36329;48.816;44.624;2022-07-23T09:54:28;100126;;;29.2;36.1
49583;BME280;36329;48.816;44.624;2022-07-23T09:57:31;100124;;;28.4;37.8
49583;BME280;36329;48.816;44.624;2022-07-23T10:00:38;100119;;;28.5;38
49583;BME280;36329;48.816;44.624;2022-07-23T10:03:41;100116;;;28;37.2
49583;BME280;36329;48.816;44.624;2022-07-23T10:06:51;100109;;;28.2;36.6
49583;BME280;36329;48.816;44.624;2022-07-23T10:09:59;100117;;;28.5;34.9
49583;BME280;36329;48.816;44.624;2022-07-23T10:13:01;100120;;;28.7;35.4
49583;BME280;36329;48.816;44.624;2022-07-23T10:16:04;100125;;;28.5;35.4
49583;BME280;36329;48.816;44.624;2022-07-23T10:19:06;100113;;;28.7;35.7
49583;BME280;36329;48.816;44.624;2022-07-23T10:22:09;100111;;;28.6;36.9
49583;BME280;36329;48.816;44.624;2022-07-23T10:25:24;100109;;;28.1;36.9
49583;BME280;36329;48.816;44.624;2022-07-23T10:28:41;100107;;;28.3;37.1
49583;BME280;36329;48.816;44.624;2022-07-23T10:31:54;100104;;;28.5;36.7
49583;BME280;36329;48.816;44.624;2022-07-23T10:35:04;100095;;;28.6;36.8
49583;BME280;36329;48.816;44.624;2022-07-23T10:38:16;100094;;;29.2;35.8
49583;BME280;36329;48.816;44.624;2022-07-23T10:41:31;100097;;;29.8;35.1
49583;BME280;36329;48.816;44.624;2022-07-23T10:44:39;100092;;;29.1;34.9
49583;BME280;36329;48.816;44.624;2022-07-23T10:47:46;100104;;;29.1;35.4
49583;BME280;36329;48.816;44.624;2022-07-23T10:54:21;100091;;;28.5;35.4
49583;BME280;36329;48.816;44.624;2022-07-23T10:57:24;100092;;;29.1;36.2
49583;BME280;36329;48.816;44.624;2022-07-23T11:00:32;100093;;;29.4;34.6
49583;BME280;36329;48.816;44.624;2022-07-23T11:03:35;100095;;;28.9;35
49583;BME280;36329;48.816;44.624;2022-07-23T11:10:35;100083;;;28.5;36.5
49583;BME280;36329;48.816;44.624;2022-07-23T11:13:47;100089;;;28;37
49583;BME280;36329;48.816;44.624;2022-07-23T11:16:54;100088;;;28.3;36.3
49583;BME280;36329;48.816;44.624;2022-07-23T11:20:16;100082;;;28.3;36.6
49583;BME280;36329;48.816;44.624;2022-07-23T11:23:18;100086;;;28;36.2
49583;BME280;36329;48.816;44.624;2022-07-23T11:29:46;100084;;;27.6;37.5
49583;BME280;36329;48.816;44.624;2022-07-23T11:32:54;100089;;;27.6;37.4
49583;BME280;36329;48.816;44.624;2022-07-23T11:36:16;100086;;;27.3;38.2
49583;BME280;36329;48.816;44.624;2022-07-23T11:39:20;100086;;;27.6;37.7
49583;BME280;36329;48.816;44.624;2022-07-23T11:42:22;100080;;;27.4;38.8
49583;BME280;36329;48.816;44.624;2022-07-23T11:45:25;100077;;;27.2;40
49583;BME280;36329;48.816;44.624;2022-07-23T11:48:29;100075;;;27.3;40.1
49583;BME280;36329;48.816;44.624;2022-07-23T11:51:31;100062;;;27.5;39.1
49583;BME280;36329;48.816;44.624;2022-07-23T11:54:33;100058;;;27.5;38.6
49583;BME280;36329;48.816;44.624;2022-07-23T11:57:37;100056;;;27.7;38.3
49583;BME280;36329;48.816;44.624;2022-07-23T12:00:41;100052;;;27.4;38.3
49583;BME280;36329;48.816;44.624;2022-07-23T12:03:48;100053;;;27.5;38.4
49583;BME280;36329;48.816;44.624;2022-07-23T12:06:50;100051;;;27.2;37.8
49583;BME280;36329;48.816;44.624;2022-07-23T12:09:52;100044;;;27;38
49583;BME280;36329;48.816;44.624;2022-07-23T12:13:01;100043;;;27;38.2
49583;BME280;36329;48.816;44.624;2022-07-23T12:16:08;100043;;;26.8;38.1
49583;BME280;36329;48.816;44.624;2022-07-23T12:19:10;100042;;;26.8;37.6
49583;BME280;36329;48.816;44.624;2022-07-23T12:22:12;100046;;;26.9;37.5
49583;BME280;36329;48.816;44.624;2022-07-23T12:25:16;100045;;;26.8;36.7
49583;BME280;36329;48.816;44.624;2022-07-23T12:28:19;100048;;;27;36.5
49583;BME280;36329;48.816;44.624;2022-07-23T12:31:27;100045;;;26.9;36.8
49583;BME280;36329;48.816;44.624;2022-07-23T12:34:33;100045;;;26.9;36.1
49583;BME280;36329;48.816;44.624;2022-07-23T12:37:38;100048;;;27.1;36.1
49583;BME280;36329;48.816;44.624;2022-07-23T12:40:43;100050;;;27;36.7
49583;BME280;36329;48.816;44.624;2022-07-23T12:43:46;100054;;;27.1;36.1
49583;BME280;36329;48.816;44.624;2022-07-23T12:46:53;100042;;;27.1;36.2
49583;BME280;36329;48.816;44.624;2022-07-23T12:49:55;100048;;;27.2;36.3
49583;BME280;36329;48.816;44.624;2022-07-23T12:53:02;100041;;;27;36.2
49583;BME280;36329;48.816;44.624;2022-07-23T12:56:28;100047;;;27;36.5
49583;BME280;36329;48.816;44.624;2022-07-23T12:59:31;100047;;;27.2;36.6
49583;BME280;36329;48.816;44.624;2022-07-23T13:02:44;100047;;;27.3;37.1
49583;BME280;36329;48.816;44.624;2022-07-23T13:05:46;100053;;;27.3;37.2
49583;BME280;36329;48.816;44.624;2022-07-23T13:08:48;100057;;;27.1;37.4
49583;BME280;36329;48.816;44.624;2022-07-23T13:11:56;100058;;;26.8;38.4
49583;BME280;36329;48.816;44.624;2022-07-23T13:14:58;100051;;;26.9;38.3
49583;BME280;36329;48.816;44.624;2022-07-23T13:17:59;100045;;;27.1;38.3
49583;BME280;36329;48.816;44.624;2022-07-23T13:21:01;100048;;;26.9;38.3
49583;BME280;36329;48.816;44.624;2022-07-23T13:24:09;100048;;;26.7;40.1
49583;BME280;36329;48.816;44.624;2022-07-23T13:27:12;100052;;;26.7;40.1
49583;BME280;36329;48.816;44.624;2022-07-23T13:30:14;100047;;;26.4;40
49583;BME280;36329;48.816;44.624;2022-07-23T13:33:16;100053;;;26.4;40.7
49583;BME280;36329;48.816;44.624;2022-07-23T13:36:18;100055;;;26.4;41.1
49583;BME280;36329;48.816;44.624;2022-07-23T13:39:19;100060;;;26.1;41.3
49583;BME280;36329;48.816;44.624;2022-07-23T13:42:21;100054;;;26.2;41.6
49583;BME280;36329;48.816;44.624;2022-07-23T13:45:23;100051;;;26.2;42.1
49583;BME280;36329;48.816;44.624;2022-07-23T13:48:25;100053;;;26.1;42.2
49583;BME280;36329;48.816;44.624;2022-07-23T13:51:32;100051;;;26;42.6
49583;BME280;36329;48.816;44.624;2022-07-23T13:54:34;100045;;;26.2;42.3
49583;BME280;36329;48.816;44.624;2022-07-23T13:57:35;100049;;;26.1;42.8
49583;BME280;36329;48.816;44.624;2022-07-23T14:00:40;100052;;;26.1;43.7
49583;BME280;36329;48.816;44.624;2022-07-23T14:03:42;100065;;;26;44.2
49583;BME280;36329;48.816;44.624;2022-07-23T14:06:49;100051;;;26.2;44.2
49583;BME280;36329;48.816;44.624;2022-07-23T14:09:51;100055;;;26.3;44.6
49583;BME280;36329;48.816;44.624;2022-07-23T14:12:53;100055;;;26.1;45
49583;BME280;36329;48.816;44.624;2022-07-23T14:15:54;100064;;;26.1;45.8
49583;BME280;36329;48.816;44.624;2022-07-23T14:18:56;100065;;;26;46.1
49583;BME280;36329;48.816;44.624;2022-07-23T14:21:57;100069;;;26;46.5
49583;BME280;36329;48.816;44.624;2022-07-23T14:25:06;100069;;;25.9;47.1
49583;BME280;36329;48.816;44.624;2022-07-23T14:28:08;100076;;;25.9;47.7
49583;BME280;36329;48.816;44.624;2022-07-23T14:31:10;100080;;;25.8;47.9
49583;BME280;36329;48.816;44.624;2022-07-23T14:34:12;100074;;;25.8;48.4
49583;BME280;36329;48.816;44.624;2022-07-23T14:37:14;100066;;;25.8;49.1
49583;BME280;36329;48.816;44.624;2022-07-23T14:40:16;100065;;;25.9;48.6
49583;BME280;36329;48.816;44.624;2022-07-23T14:43:17;100060;;;25.8;48.4
49583;BME280;36329;48.816;44.624;2022-07-23T14:46:24;100066;;;25.8;48.5
49583;BME280;36329;48.816;44.624;2022-07-23T14:49:26;100066;;;25.9;48.4
49583;BME280;36329;48.816;44.624;2022-07-23T14:52:27;100068;;;25.8;48.7
49583;BME280;36329;48.816;44.624;2022-07-23T14:55:31;100074;;;25.8;48.9
49583;BME280;36329;48.816;44.624;2022-07-23T14:58:32;100074;;;25.8;49.2
49583;BME280;36329;48.816;44.624;2022-07-23T15:01:35;100072;;;25.6;49.5
49583;BME280;36329;48.816;44.624;2022-07-23T15:04:36;100079;;;25.5;49.5
49583;BME280;36329;48.816;44.624;2022-07-23T15:07:48;100080;;;25.5;49.7
49583;BME280;36329;48.816;44.624;2022-07-23T15:10:51;100083;;;25.5;49.3
49583;BME280;36329;48.816;44.624;2022-07-23T15:13:53;100095;;;25.6;49.4
49583;BME280;36329;48.816;44.624;2022-07-23T15:16:55;100100;;;25.6;48.6
49583;BME280;36329;48.816;44.624;2022-07-23T15:19:57;100103;;;25.8;48.5
49583;BME280;36329;48.816;44.624;2022-07-23T15:22:59;100102;;;25.7;46.9
49583;BME280;36329;48.816;44.624;2022-07-23T15:26:07;100104;;;25.8;46.6
49583;BME280;36329;48.816;44.624;2022-07-23T15:29:09;100108;;;25.8;45.8
49583;BME280;36329;48.816;44.624;2022-07-23T15:32:10;100111;;;25.7;46.3
49583;BME280;36329;48.816;44.624;2022-07-23T15:35:12;100112;;;25.6;46.6
49583;BME280;36329;48.816;44.624;2022-07-23T15:38:13;100113;;;25.6;46.2
49583;BME280;36329;48.816;44.624;2022-07-23T15:41:20;100110;;;25.5;46.3
49583;BME280;36329;48.816;44.624;2022-07-23T15:44:22;100113;;;25.5;46.2
49583;BME280;36329;48.816;44.624;2022-07-23T15:47:24;100110;;;25.3;45.6
49583;BME280;36329;48.816;44.624;2022-07-23T15:50:26;100112;;;25.4;45.5
49583;BME280;36329;48.816;44.624;2022-07-23T15:53:27;100108;;;25.4;45.5
49583;BME280;36329;48.816;44.624;2022-07-23T15:56:29;100116;;;25.3;46.6
49583;BME280;36329;48.816;44.624;2022-07-23T15:59:30;100120;;;25.2;47.2
49583;BME280;36329;48.816;44.624;2022-07-23T16:02:32;100117;;;25.2;47.7
49583;BME280;36329;48.816;44.624;2022-07-23T16:05:33;100114;;;25.2;48.6
49583;BME280;36329;48.816;44.624;2022-07-23T16:08:36;100117;;;25.2;48.4
49583;BME280;36329;48.816;44.624;2022-07-23T16:11:37;100108;;;25.1;49
49583;BME280;36329;48.816;44.624;2022-07-23T16:14:45;100106;;;25.1;49.2
49583;BME280;36329;48.816;44.624;2022-07-23T16:17:53;100098;;;25.1;49.6
49583;BME280;36329;48.816;44.624;2022-07-23T16:20:55;100098;;;25;49.5
49583;BME280;36329;48.816;44.624;2022-07-23T16:23:57;100100;;;24.9;50.1
49583;BME280;36329;48.816;44.624;2022-07-23T16:26:59;100097;;;24.9;49.8
49583;BME280;36329;48.816;44.624;2022-07-23T16:30:00;100105;;;24.9;49.3
49583;BME280;36329;48.816;44.624;2022-07-23T16:33:02;100108;;;24.7;49.4
49583;BME280;36329;48.816;44.624;2022-07-23T16:36:05;100103;;;24.8;49.3
49583;BME280;36329;48.816;44.624;2022-07-23T16:39:07;100105;;;24.8;49.7
49583;BME280;36329;48.816;44.624;2022-07-23T16:42:08;100105;;;24.7;50.2
49583;BME280;36329;48.816;44.624;2022-07-23T16:45:11;100113;;;24.8;51.6
49583;BME280;36329;48.816;44.624;2022-07-23T16:48:12;100122;;;24.5;55
49583;BME280;36329;48.816;44.624;2022-07-23T16:51:14;100120;;;24.3;59.4
49583;BME280;36329;48.816;44.624;2022-07-23T16:54:16;100133;;;24;61.3
49583;BME280;36329;48.816;44.624;2022-07-23T16:57:18;100159;;;23.7;64.6
49583;BME280;36329;48.816;44.624;2022-07-23T17:00:20;100171;;;23.3;67.7
49583;BME280;36329;48.816;44.624;2022-07-23T17:03:22;100182;;;23.3;70.8
49583;BME280;36329;48.816;44.624;2022-07-23T17:06:23;100197;;;23;71.1
49583;BME280;36329;48.816;44.624;2022-07-23T17:09:26;100203;;;22.9;68.6
49583;BME280;36329;48.816;44.624;2022-07-23T17:12:28;100198;;;22.6;70.8